Terminal Aerodrome Forecast
Issued by NWS

Home | Current Version | Previous Version | Text Only | Print | Product List | Glossary On
Versions: 1 2 3 4 5 6 7 8 9 10 11 12 13 14 15 16 17 18 19 20 21 22
000
FTUS41 KGYX 040531
TAFAUG
TAF
KAUG 040531Z 0406/0506 20004KT 6SM BR BKN100
     FM040800 19005KT 3SM BR SCT005 SCT070
     FM041300 19005KT P6SM SCT060
     FM041700 22007KT P6SM VCTS SCT060CB BKN100
     FM050300 25005KT 5SM BR SCT060=

USA.gov is the U.S. government's official web portal to all federal, state and local government web resources and services.